sensor_id;sensor_type;location;lat;lon;timestamp;P1;durP1;ratioP1;P2;durP2;ratioP2
11453;SDS011;5783;55.174;61.310;2023-02-28T00:02:00;1.27;;;1.17;;
11453;SDS011;5783;55.174;61.310;2023-02-28T00:04:31;1.20;;;1.10;;
11453;SDS011;5783;55.174;61.310;2023-02-28T00:07:00;1.10;;;1.00;;
11453;SDS011;5783;55.174;61.310;2023-02-28T00:09:29;1.03;;;1.03;;
11453;SDS011;5783;55.174;61.310;2023-02-28T00:11:58;1.47;;;1.37;;
11453;SDS011;5783;55.174;61.310;2023-02-28T00:14:29;1.27;;;1.17;;
11453;SDS011;5783;55.174;61.310;2023-02-28T00:16:59;1.10;;;1.10;;
11453;SDS011;5783;55.174;61.310;2023-02-28T00:19:28;1.30;;;1.20;;
11453;SDS011;5783;55.174;61.310;2023-02-28T00:21:57;1.20;;;1.10;;
11453;SDS011;5783;55.174;61.310;2023-02-28T00:24:26;1.07;;;1.00;;
11453;SDS011;5783;55.174;61.310;2023-02-28T00:26:55;1.30;;;1.20;;
11453;SDS011;5783;55.174;61.310;2023-02-28T00:29:24;1.23;;;1.13;;
11453;SDS011;5783;55.174;61.310;2023-02-28T00:31:53;1.20;;;1.10;;
11453;SDS011;5783;55.174;61.310;2023-02-28T00:34:23;1.03;;;0.93;;
11453;SDS011;5783;55.174;61.310;2023-02-28T00:36:52;1.20;;;1.10;;
11453;SDS011;5783;55.174;61.310;2023-02-28T00:39:21;1.10;;;1.10;;
11453;SDS011;5783;55.174;61.310;2023-02-28T00:41:50;1.30;;;1.20;;
11453;SDS011;5783;55.174;61.310;2023-02-28T00:44:20;1.17;;;1.07;;
11453;SDS011;5783;55.174;61.310;2023-02-28T00:46:49;1.27;;;1.20;;
11453;SDS011;5783;55.174;61.310;2023-02-28T00:49:20;1.27;;;1.17;;
11453;SDS011;5783;55.174;61.310;2023-02-28T00:51:49;1.20;;;1.10;;
11453;SDS011;5783;55.174;61.310;2023-02-28T00:54:18;1.07;;;1.00;;
11453;SDS011;5783;55.174;61.310;2023-02-28T00:56:49;1.27;;;1.17;;
11453;SDS011;5783;55.174;61.310;2023-02-28T00:59:18;1.13;;;1.13;;
11453;SDS011;5783;55.174;61.310;2023-02-28T01:01:48;1.43;;;1.33;;
11453;SDS011;5783;55.174;61.310;2023-02-28T01:04:17;1.27;;;1.17;;
11453;SDS011;5783;55.174;61.310;2023-02-28T01:06:46;1.37;;;1.27;;
11453;SDS011;5783;55.174;61.310;2023-02-28T01:09:15;1.17;;;1.10;;
11453;SDS011;5783;55.174;61.310;2023-02-28T01:11:44;1.13;;;1.07;;
11453;SDS011;5783;55.174;61.310;2023-02-28T01:14:14;1.30;;;1.20;;
11453;SDS011;5783;55.174;61.310;2023-02-28T01:16:45;0.93;;;0.93;;
11453;SDS011;5783;55.174;61.310;2023-02-28T01:19:14;1.73;;;1.30;;
11453;SDS011;5783;55.174;61.310;2023-02-28T01:21:43;1.03;;;1.00;;
11453;SDS011;5783;55.174;61.310;2023-02-28T01:24:13;1.40;;;1.30;;
11453;SDS011;5783;55.174;61.310;2023-02-28T01:26:42;1.07;;;1.00;;
11453;SDS011;5783;55.174;61.310;2023-02-28T01:29:11;1.10;;;1.10;;
11453;SDS011;5783;55.174;61.310;2023-02-28T01:31:40;1.10;;;1.10;;
11453;SDS011;5783;55.174;61.310;2023-02-28T01:34:09;0.93;;;0.93;;
11453;SDS011;5783;55.174;61.310;2023-02-28T01:36:38;1.07;;;1.07;;
11453;SDS011;5783;55.174;61.310;2023-02-28T01:39:07;1.30;;;1.20;;
11453;SDS011;5783;55.174;61.310;2023-02-28T01:41:38;0.90;;;0.90;;
11453;SDS011;5783;55.174;61.310;2023-02-28T01:44:54;1.73;;;1.10;;
11453;SDS011;5783;55.174;61.310;2023-02-28T01:46:57;1.40;;;1.30;;
11453;SDS011;5783;55.174;61.310;2023-02-28T01:49:27;1.30;;;1.20;;
11453;SDS011;5783;55.174;61.310;2023-02-28T01:51:56;1.23;;;1.13;;
11453;SDS011;5783;55.174;61.310;2023-02-28T01:54:26;1.20;;;1.10;;
11453;SDS011;5783;55.174;61.310;2023-02-28T01:56:59;1.30;;;1.20;;
11453;SDS011;5783;55.174;61.310;2023-02-28T02:02:39;1.50;;;1.40;;
11453;SDS011;5783;55.174;61.310;2023-02-28T02:05:29;1.20;;;1.10;;
11453;SDS011;5783;55.174;61.310;2023-02-28T02:10:51;1.30;;;1.20;;
11453;SDS011;5783;55.174;61.310;2023-02-28T02:44:31;1.50;;;1.40;;
11453;SDS011;5783;55.174;61.310;2023-02-28T02:47:21;1.60;;;1.50;;
11453;SDS011;5783;55.174;61.310;2023-02-28T02:49:53;1.20;;;1.10;;
11453;SDS011;5783;55.174;61.310;2023-02-28T02:52:29;1.43;;;1.33;;
11453;SDS011;5783;55.174;61.310;2023-02-28T02:54:57;1.33;;;1.23;;
11453;SDS011;5783;55.174;61.310;2023-02-28T03:00:39;1.40;;;1.30;;
11453;SDS011;5783;55.174;61.310;2023-02-28T03:03:10;1.40;;;1.30;;
11453;SDS011;5783;55.174;61.310;2023-02-28T03:11:20;1.13;;;1.10;;
11453;SDS011;5783;55.174;61.310;2023-02-28T03:13:52;1.53;;;1.43;;
11453;SDS011;5783;55.174;61.310;2023-02-28T03:25:32;1.40;;;1.30;;
11453;SDS011;5783;55.174;61.310;2023-02-28T03:28:22;1.40;;;1.30;;
11453;SDS011;5783;55.174;61.310;2023-02-28T03:40:03;1.40;;;1.30;;
11453;SDS011;5783;55.174;61.310;2023-02-28T03:42:53;1.37;;;1.27;;
11453;SDS011;5783;55.174;61.310;2023-02-28T03:51:22;1.40;;;1.30;;
11453;SDS011;5783;55.174;61.310;2023-02-28T03:53:54;1.47;;;1.37;;
11453;SDS011;5783;55.174;61.310;2023-02-28T03:56:47;1.70;;;1.60;;
11453;SDS011;5783;55.174;61.310;2023-02-28T04:02:24;1.67;;;1.57;;
11453;SDS011;5783;55.174;61.310;2023-02-28T04:04:53;1.90;;;1.70;;
11453;SDS011;5783;55.174;61.310;2023-02-28T04:07:22;1.53;;;1.43;;
11453;SDS011;5783;55.174;61.310;2023-02-28T04:09:52;1.77;;;1.67;;
11453;SDS011;5783;55.174;61.310;2023-02-28T04:12:21;1.50;;;1.40;;
11453;SDS011;5783;55.174;61.310;2023-02-28T04:14:50;1.60;;;1.50;;
11453;SDS011;5783;55.174;61.310;2023-02-28T04:17:19;1.80;;;1.70;;
11453;SDS011;5783;55.174;61.310;2023-02-28T04:19:48;1.90;;;1.70;;
11453;SDS011;5783;55.174;61.310;2023-02-28T04:22:17;1.70;;;1.60;;
11453;SDS011;5783;55.174;61.310;2023-02-28T04:24:47;1.70;;;1.60;;
11453;SDS011;5783;55.174;61.310;2023-02-28T04:27:16;1.57;;;1.47;;
11453;SDS011;5783;55.174;61.310;2023-02-28T04:29:45;1.60;;;1.50;;
11453;SDS011;5783;55.174;61.310;2023-02-28T04:32:14;1.70;;;1.60;;
11453;SDS011;5783;55.174;61.310;2023-02-28T04:34:44;1.90;;;1.80;;
11453;SDS011;5783;55.174;61.310;2023-02-28T04:37:13;1.70;;;1.60;;
11453;SDS011;5783;55.174;61.310;2023-02-28T04:39:42;1.70;;;1.60;;
11453;SDS011;5783;55.174;61.310;2023-02-28T04:42:12;1.80;;;1.70;;
11453;SDS011;5783;55.174;61.310;2023-02-28T04:44:41;2.20;;;2.00;;
11453;SDS011;5783;55.174;61.310;2023-02-28T04:47:10;2.57;;;2.37;;
11453;SDS011;5783;55.174;61.310;2023-02-28T04:49:39;4.10;;;2.80;;
11453;SDS011;5783;55.174;61.310;2023-02-28T04:52:09;4.07;;;3.17;;
11453;SDS011;5783;55.174;61.310;2023-02-28T04:54:39;5.37;;;3.83;;
11453;SDS011;5783;55.174;61.310;2023-02-28T04:57:08;6.87;;;5.30;;
11453;SDS011;5783;55.174;61.310;2023-02-28T04:59:37;5.27;;;4.63;;
11453;SDS011;5783;55.174;61.310;2023-02-28T05:02:06;7.27;;;5.63;;
11453;SDS011;5783;55.174;61.310;2023-02-28T05:04:36;8.40;;;6.40;;
11453;SDS011;5783;55.174;61.310;2023-02-28T05:07:05;6.90;;;5.63;;
11453;SDS011;5783;55.174;61.310;2023-02-28T05:09:35;5.93;;;4.77;;
11453;SDS011;5783;55.174;61.310;2023-02-28T05:12:04;6.47;;;5.03;;
11453;SDS011;5783;55.174;61.310;2023-02-28T05:14:34;8.47;;;6.23;;
11453;SDS011;5783;55.174;61.310;2023-02-28T05:17:03;9.57;;;7.67;;
11453;SDS011;5783;55.174;61.310;2023-02-28T05:19:32;10.43;;;8.00;;
11453;SDS011;5783;55.174;61.310;2023-02-28T05:22:01;10.77;;;7.60;;
11453;SDS011;5783;55.174;61.310;2023-02-28T05:24:30;13.80;;;9.93;;
11453;SDS011;5783;55.174;61.310;2023-02-28T05:26:59;11.73;;;8.43;;
11453;SDS011;5783;55.174;61.310;2023-02-28T05:29:29;11.77;;;8.53;;
11453;SDS011;5783;55.174;61.310;2023-02-28T05:31:58;10.20;;;8.50;;
11453;SDS011;5783;55.174;61.310;2023-02-28T05:34:27;12.77;;;8.20;;
11453;SDS011;5783;55.174;61.310;2023-02-28T05:36:56;12.73;;;8.57;;
11453;SDS011;5783;55.174;61.310;2023-02-28T05:39:25;10.77;;;7.30;;
11453;SDS011;5783;55.174;61.310;2023-02-28T05:41:54;10.93;;;7.93;;
11453;SDS011;5783;55.174;61.310;2023-02-28T05:44:26;11.03;;;7.77;;
11453;SDS011;5783;55.174;61.310;2023-02-28T05:46:55;8.97;;;6.60;;
11453;SDS011;5783;55.174;61.310;2023-02-28T05:49:24;7.83;;;5.70;;
11453;SDS011;5783;55.174;61.310;2023-02-28T05:51:53;7.97;;;4.90;;
11453;SDS011;5783;55.174;61.310;2023-02-28T05:54:22;8.00;;;4.77;;
11453;SDS011;5783;55.174;61.310;2023-02-28T05:56:51;6.50;;;4.87;;
11453;SDS011;5783;55.174;61.310;2023-02-28T05:59:20;6.07;;;4.03;;
11453;SDS011;5783;55.174;61.310;2023-02-28T06:01:50;5.13;;;3.77;;
11453;SDS011;5783;55.174;61.310;2023-02-28T06:04:19;4.97;;;3.47;;
11453;SDS011;5783;55.174;61.310;2023-02-28T06:06:49;5.53;;;3.70;;
11453;SDS011;5783;55.174;61.310;2023-02-28T06:09:19;4.07;;;3.40;;
11453;SDS011;5783;55.174;61.310;2023-02-28T06:11:48;4.27;;;3.23;;
11453;SDS011;5783;55.174;61.310;2023-02-28T06:14:19;5.37;;;3.97;;
11453;SDS011;5783;55.174;61.310;2023-02-28T06:16:48;4.07;;;3.40;;
11453;SDS011;5783;55.174;61.310;2023-02-28T06:19:17;4.73;;;3.50;;
11453;SDS011;5783;55.174;61.310;2023-02-28T06:21:49;5.20;;;3.30;;
11453;SDS011;5783;55.174;61.310;2023-02-28T06:24:20;6.33;;;3.60;;
11453;SDS011;5783;55.174;61.310;2023-02-28T06:26:53;4.57;;;3.70;;
11453;SDS011;5783;55.174;61.310;2023-02-28T06:29:23;4.97;;;3.73;;
11453;SDS011;5783;55.174;61.310;2023-02-28T06:31:53;7.80;;;4.77;;
11453;SDS011;5783;55.174;61.310;2023-02-28T06:34:22;5.73;;;4.43;;
11453;SDS011;5783;55.174;61.310;2023-02-28T06:36:51;6.37;;;4.20;;
11453;SDS011;5783;55.174;61.310;2023-02-28T06:39:21;6.23;;;4.03;;
11453;SDS011;5783;55.174;61.310;2023-02-28T06:41:50;4.33;;;3.83;;
11453;SDS011;5783;55.174;61.310;2023-02-28T06:44:20;4.87;;;3.63;;
11453;SDS011;5783;55.174;61.310;2023-02-28T06:46:50;4.53;;;3.63;;
11453;SDS011;5783;55.174;61.310;2023-02-28T06:49:19;5.03;;;3.50;;
11453;SDS011;5783;55.174;61.310;2023-02-28T06:51:48;4.87;;;3.70;;
11453;SDS011;5783;55.174;61.310;2023-02-28T06:54:17;4.80;;;3.77;;
11453;SDS011;5783;55.174;61.310;2023-02-28T06:56:46;4.50;;;3.80;;
11453;SDS011;5783;55.174;61.310;2023-02-28T06:59:16;5.43;;;4.20;;
11453;SDS011;5783;55.174;61.310;2023-02-28T07:01:45;7.47;;;4.10;;
11453;SDS011;5783;55.174;61.310;2023-02-28T07:04:15;3.83;;;3.40;;
11453;SDS011;5783;55.174;61.310;2023-02-28T07:06:44;4.97;;;3.60;;
11453;SDS011;5783;55.174;61.310;2023-02-28T07:09:13;4.40;;;3.40;;
11453;SDS011;5783;55.174;61.310;2023-02-28T07:11:42;4.30;;;3.30;;
11453;SDS011;5783;55.174;61.310;2023-02-28T07:14:12;4.80;;;3.50;;
11453;SDS011;5783;55.174;61.310;2023-02-28T07:16:41;3.83;;;3.40;;
11453;SDS011;5783;55.174;61.310;2023-02-28T07:19:11;3.50;;;3.00;;
11453;SDS011;5783;55.174;61.310;2023-02-28T07:21:40;5.17;;;3.40;;
11453;SDS011;5783;55.174;61.310;2023-02-28T07:24:09;3.83;;;3.00;;
11453;SDS011;5783;55.174;61.310;2023-02-28T07:26:40;4.00;;;3.10;;
11453;SDS011;5783;55.174;61.310;2023-02-28T07:29:09;4.50;;;3.30;;
11453;SDS011;5783;55.174;61.310;2023-02-28T07:31:38;4.07;;;3.43;;
11453;SDS011;5783;55.174;61.310;2023-02-28T07:34:07;4.77;;;3.70;;
11453;SDS011;5783;55.174;61.310;2023-02-28T07:36:37;5.43;;;3.70;;
11453;SDS011;5783;55.174;61.310;2023-02-28T07:39:06;4.90;;;3.73;;
11453;SDS011;5783;55.174;61.310;2023-02-28T07:41:36;4.03;;;3.40;;
11453;SDS011;5783;55.174;61.310;2023-02-28T07:44:06;3.80;;;3.17;;
11453;SDS011;5783;55.174;61.310;2023-02-28T07:46:36;4.53;;;3.20;;
11453;SDS011;5783;55.174;61.310;2023-02-28T07:49:05;3.67;;;3.00;;
11453;SDS011;5783;55.174;61.310;2023-02-28T07:51:34;3.70;;;2.80;;
11453;SDS011;5783;55.174;61.310;2023-02-28T07:54:03;3.63;;;2.90;;
11453;SDS011;5783;55.174;61.310;2023-02-28T07:56:33;4.20;;;2.90;;
11453;SDS011;5783;55.174;61.310;2023-02-28T07:59:02;3.13;;;2.80;;
11453;SDS011;5783;55.174;61.310;2023-02-28T08:01:31;3.23;;;2.87;;
11453;SDS011;5783;55.174;61.310;2023-02-28T08:04:00;3.07;;;2.77;;
11453;SDS011;5783;55.174;61.310;2023-02-28T08:06:30;3.30;;;2.90;;
11453;SDS011;5783;55.174;61.310;2023-02-28T08:08:59;3.03;;;2.73;;
11453;SDS011;5783;55.174;61.310;2023-02-28T08:11:28;3.97;;;2.70;;
11453;SDS011;5783;55.174;61.310;2023-02-28T08:13:57;3.40;;;2.80;;
11453;SDS011;5783;55.174;61.310;2023-02-28T08:16:26;3.07;;;2.77;;
11453;SDS011;5783;55.174;61.310;2023-02-28T08:18:55;3.33;;;3.03;;
11453;SDS011;5783;55.174;61.310;2023-02-28T08:21:25;3.37;;;3.00;;
11453;SDS011;5783;55.174;61.310;2023-02-28T08:23:54;3.00;;;2.70;;
11453;SDS011;5783;55.174;61.310;2023-02-28T08:26:23;3.10;;;2.80;;
11453;SDS011;5783;55.174;61.310;2023-02-28T08:28:52;3.20;;;2.90;;
11453;SDS011;5783;55.174;61.310;2023-02-28T08:31:21;3.17;;;2.70;;
11453;SDS011;5783;55.174;61.310;2023-02-28T08:33:50;2.90;;;2.60;;
11453;SDS011;5783;55.174;61.310;2023-02-28T08:36:21;3.20;;;2.80;;
11453;SDS011;5783;55.174;61.310;2023-02-28T08:38:52;3.63;;;2.90;;
11453;SDS011;5783;55.174;61.310;2023-02-28T08:41:21;3.53;;;3.00;;
11453;SDS011;5783;55.174;61.310;2023-02-28T08:43:50;3.00;;;2.70;;
11453;SDS011;5783;55.174;61.310;2023-02-28T08:46:19;3.37;;;2.80;;
11453;SDS011;5783;55.174;61.310;2023-02-28T08:51:21;3.60;;;3.13;;
11453;SDS011;5783;55.174;61.310;2023-02-28T08:54:10;4.33;;;3.40;;
11453;SDS011;5783;55.174;61.310;2023-02-28T08:56:41;4.07;;;3.60;;
11453;SDS011;5783;55.174;61.310;2023-02-28T08:59:10;5.23;;;3.93;;
11453;SDS011;5783;55.174;61.310;2023-02-28T09:01:39;5.17;;;3.80;;
11453;SDS011;5783;55.174;61.310;2023-02-28T09:04:09;4.67;;;3.80;;
11453;SDS011;5783;55.174;61.310;2023-02-28T09:06:39;3.97;;;3.30;;
11453;SDS011;5783;55.174;61.310;2023-02-28T09:09:08;4.47;;;3.27;;
11453;SDS011;5783;55.174;61.310;2023-02-28T09:11:38;4.13;;;3.20;;
11453;SDS011;5783;55.174;61.310;2023-02-28T09:14:07;4.43;;;3.27;;
11453;SDS011;5783;55.174;61.310;2023-02-28T09:16:36;3.80;;;3.30;;
11453;SDS011;5783;55.174;61.310;2023-02-28T09:19:06;5.20;;;3.27;;
11453;SDS011;5783;55.174;61.310;2023-02-28T09:21:36;4.27;;;3.60;;
11453;SDS011;5783;55.174;61.310;2023-02-28T09:24:05;4.67;;;3.80;;
11453;SDS011;5783;55.174;61.310;2023-02-28T09:26:37;5.70;;;3.73;;
11453;SDS011;5783;55.174;61.310;2023-02-28T09:29:06;5.10;;;3.70;;
11453;SDS011;5783;55.174;61.310;2023-02-28T09:31:35;4.50;;;3.73;;
11453;SDS011;5783;55.174;61.310;2023-02-28T09:34:04;3.80;;;3.33;;
11453;SDS011;5783;55.174;61.310;2023-02-28T09:36:34;3.87;;;3.27;;
11453;SDS011;5783;55.174;61.310;2023-02-28T09:39:22;4.50;;;3.53;;
11453;SDS011;5783;55.174;61.310;2023-02-28T09:41:52;6.00;;;4.07;;
11453;SDS011;5783;55.174;61.310;2023-02-28T10:01:49;4.83;;;4.03;;
11453;SDS011;5783;55.174;61.310;2023-02-28T10:14:19;4.33;;;3.50;;
11453;SDS011;5783;55.174;61.310;2023-02-28T10:25:42;3.90;;;3.07;;
11453;SDS011;5783;55.174;61.310;2023-02-28T10:28:15;3.20;;;2.63;;
11453;SDS011;5783;55.174;61.310;2023-02-28T10:33:35;3.23;;;2.67;;
11453;SDS011;5783;55.174;61.310;2023-02-28T10:36:04;3.10;;;2.80;;
11453;SDS011;5783;55.174;61.310;2023-02-28T10:38:36;3.50;;;2.90;;
11453;SDS011;5783;55.174;61.310;2023-02-28T10:41:08;3.57;;;3.27;;
11453;SDS011;5783;55.174;61.310;2023-02-28T10:43:40;4.23;;;3.30;;
11453;SDS011;5783;55.174;61.310;2023-02-28T10:46:30;4.40;;;3.43;;
11453;SDS011;5783;55.174;61.310;2023-02-28T10:49:03;4.40;;;3.73;;
11453;SDS011;5783;55.174;61.310;2023-02-28T10:51:34;7.00;;;5.27;;
11453;SDS011;5783;55.174;61.310;2023-02-28T10:54:14;7.07;;;5.50;;
11453;SDS011;5783;55.174;61.310;2023-02-28T11:00:22;8.13;;;6.10;;
11453;SDS011;5783;55.174;61.310;2023-02-28T11:02:37;7.83;;;6.67;;
11453;SDS011;5783;55.174;61.310;2023-02-28T11:08:17;9.27;;;6.77;;
11453;SDS011;5783;55.174;61.310;2023-02-28T11:10:48;7.63;;;6.27;;
11453;SDS011;5783;55.174;61.310;2023-02-28T11:13:37;9.00;;;6.53;;
11453;SDS011;5783;55.174;61.310;2023-02-28T11:16:08;9.33;;;6.53;;
11453;SDS011;5783;55.174;61.310;2023-02-28T11:24:37;10.37;;;7.97;;
11453;SDS011;5783;55.174;61.310;2023-02-28T11:27:40;7.93;;;6.07;;
11453;SDS011;5783;55.174;61.310;2023-02-28T11:33:28;7.97;;;6.37;;
11453;SDS011;5783;55.174;61.310;2023-02-28T11:38:32;8.43;;;6.33;;
11453;SDS011;5783;55.174;61.310;2023-02-28T12:49:26;4.37;;;3.83;;
11453;SDS011;5783;55.174;61.310;2023-02-28T12:52:17;5.73;;;4.63;;
11453;SDS011;5783;55.174;61.310;2023-02-28T13:00:33;4.50;;;4.10;;
11453;SDS011;5783;55.174;61.310;2023-02-28T13:09:21;4.83;;;3.90;;
11453;SDS011;5783;55.174;61.310;2023-02-28T13:11:51;4.40;;;4.00;;
11453;SDS011;5783;55.174;61.310;2023-02-28T13:17:12;5.93;;;4.77;;
11453;SDS011;5783;55.174;61.310;2023-02-28T13:19:45;6.03;;;4.80;;
11453;SDS011;5783;55.174;61.310;2023-02-28T13:36:29;4.07;;;3.53;;
11453;SDS011;5783;55.174;61.310;2023-02-28T13:52:18;3.10;;;2.70;;
11453;SDS011;5783;55.174;61.310;2023-02-28T14:09:39;2.90;;;2.50;;
11453;SDS011;5783;55.174;61.310;2023-02-28T14:18:30;3.83;;;2.13;;
11453;SDS011;5783;55.174;61.310;2023-02-28T14:21:08;2.30;;;2.00;;
11453;SDS011;5783;55.174;61.310;2023-02-28T14:38:59;2.47;;;2.27;;
11453;SDS011;5783;55.174;61.310;2023-02-28T14:47:11;3.70;;;2.50;;
11453;SDS011;5783;55.174;61.310;2023-02-28T14:52:31;2.70;;;2.30;;
11453;SDS011;5783;55.174;61.310;2023-02-28T14:58:17;3.13;;;2.40;;
11453;SDS011;5783;55.174;61.310;2023-02-28T15:01:00;2.30;;;2.10;;
11453;SDS011;5783;55.174;61.310;2023-02-28T15:06:39;3.00;;;2.10;;
11453;SDS011;5783;55.174;61.310;2023-02-28T15:09:09;2.90;;;2.60;;
11453;SDS011;5783;55.174;61.310;2023-02-28T15:11:40;3.70;;;2.20;;
11453;SDS011;5783;55.174;61.310;2023-02-28T15:14:13;2.67;;;2.40;;
11453;SDS011;5783;55.174;61.310;2023-02-28T15:16:42;3.40;;;2.60;;
11453;SDS011;5783;55.174;61.310;2023-02-28T15:19:14;3.13;;;2.83;;
11453;SDS011;5783;55.174;61.310;2023-02-28T15:22:05;4.33;;;3.53;;
11453;SDS011;5783;55.174;61.310;2023-02-28T15:24:55;4.67;;;3.97;;
11453;SDS011;5783;55.174;61.310;2023-02-28T15:30:16;5.00;;;3.90;;
11453;SDS011;5783;55.174;61.310;2023-02-28T15:36:15;5.33;;;4.50;;
11453;SDS011;5783;55.174;61.310;2023-02-28T15:38:50;7.43;;;5.33;;
11453;SDS011;5783;55.174;61.310;2023-02-28T15:46:59;6.13;;;4.57;;
11453;SDS011;5783;55.174;61.310;2023-02-28T15:52:04;5.03;;;3.97;;
11453;SDS011;5783;55.174;61.310;2023-02-28T15:54:33;5.07;;;4.27;;
11453;SDS011;5783;55.174;61.310;2023-02-28T15:59:54;4.97;;;3.90;;
11453;SDS011;5783;55.174;61.310;2023-02-28T16:05:18;4.73;;;3.90;;
11453;SDS011;5783;55.174;61.310;2023-02-28T16:10:54;4.40;;;3.67;;
11453;SDS011;5783;55.174;61.310;2023-02-28T16:13:23;4.33;;;3.90;;
11453;SDS011;5783;55.174;61.310;2023-02-28T16:15:53;4.43;;;3.40;;
11453;SDS011;5783;55.174;61.310;2023-02-28T16:18:22;4.23;;;3.80;;
11453;SDS011;5783;55.174;61.310;2023-02-28T16:20:53;4.77;;;3.40;;
11453;SDS011;5783;55.174;61.310;2023-02-28T16:23:22;4.13;;;3.40;;
11453;SDS011;5783;55.174;61.310;2023-02-28T16:25:51;4.00;;;3.50;;
11453;SDS011;5783;55.174;61.310;2023-02-28T16:28:21;3.50;;;3.00;;
11453;SDS011;5783;55.174;61.310;2023-02-28T16:30:54;3.50;;;3.00;;
11453;SDS011;5783;55.174;61.310;2023-02-28T16:33:23;3.17;;;2.67;;
11453;SDS011;5783;55.174;61.310;2023-02-28T16:35:52;3.10;;;2.80;;
11453;SDS011;5783;55.174;61.310;2023-02-28T16:38:22;3.33;;;3.00;;
11453;SDS011;5783;55.174;61.310;2023-02-28T16:40:51;3.20;;;2.70;;
11453;SDS011;5783;55.174;61.310;2023-02-28T16:43:24;2.67;;;2.47;;
11453;SDS011;5783;55.174;61.310;2023-02-28T16:45:55;2.80;;;2.60;;
11453;SDS011;5783;55.174;61.310;2023-02-28T16:48:27;2.73;;;2.40;;
11453;SDS011;5783;55.174;61.310;2023-02-28T16:50:56;2.70;;;2.50;;
11453;SDS011;5783;55.174;61.310;2023-02-28T16:53:25;2.87;;;2.50;;
11453;SDS011;5783;55.174;61.310;2023-02-28T16:55:55;2.77;;;2.47;;
11453;SDS011;5783;55.174;61.310;2023-02-28T16:58:24;2.70;;;2.40;;
11453;SDS011;5783;55.174;61.310;2023-02-28T17:00:53;2.50;;;2.30;;
11453;SDS011;5783;55.174;61.310;2023-02-28T17:05:55;2.80;;;2.50;;
11453;SDS011;5783;55.174;61.310;2023-02-28T17:08:24;2.50;;;2.30;;
11453;SDS011;5783;55.174;61.310;2023-02-28T17:10:55;2.70;;;2.30;;
11453;SDS011;5783;55.174;61.310;2023-02-28T17:13:24;2.97;;;2.63;;
11453;SDS011;5783;55.174;61.310;2023-02-28T17:18:24;3.27;;;2.47;;
11453;SDS011;5783;55.174;61.310;2023-02-28T17:20:56;2.30;;;2.10;;
11453;SDS011;5783;55.174;61.310;2023-02-28T17:23:25;2.67;;;2.47;;
11453;SDS011;5783;55.174;61.310;2023-02-28T17:25:55;4.20;;;3.30;;
11453;SDS011;5783;55.174;61.310;2023-02-28T17:28:24;4.77;;;4.20;;
11453;SDS011;5783;55.174;61.310;2023-02-28T17:30:53;5.03;;;4.23;;
11453;SDS011;5783;55.174;61.310;2023-02-28T17:33:22;5.40;;;4.03;;
11453;SDS011;5783;55.174;61.310;2023-02-28T17:35:51;5.80;;;5.10;;
11453;SDS011;5783;55.174;61.310;2023-02-28T17:38:20;4.43;;;3.57;;
11453;SDS011;5783;55.174;61.310;2023-02-28T17:40:50;3.80;;;3.40;;
11453;SDS011;5783;55.174;61.310;2023-02-28T17:43:20;4.53;;;3.60;;
11453;SDS011;5783;55.174;61.310;2023-02-28T17:45:50;3.53;;;3.23;;
11453;SDS011;5783;55.174;61.310;2023-02-28T17:48:19;3.93;;;3.20;;
11453;SDS011;5783;55.174;61.310;2023-02-28T17:50:48;4.23;;;3.47;;
11453;SDS011;5783;55.174;61.310;2023-02-28T17:53:17;3.83;;;3.40;;
11453;SDS011;5783;55.174;61.310;2023-02-28T17:58:19;4.80;;;3.80;;
11453;SDS011;5783;55.174;61.310;2023-02-28T18:00:48;5.67;;;4.33;;
11453;SDS011;5783;55.174;61.310;2023-02-28T18:03:19;4.17;;;3.77;;
11453;SDS011;5783;55.174;61.310;2023-02-28T18:05:50;4.50;;;3.97;;
11453;SDS011;5783;55.174;61.310;2023-02-28T18:08:19;4.90;;;3.87;;
11453;SDS011;5783;55.174;61.310;2023-02-28T18:10:48;5.43;;;3.90;;
11453;SDS011;5783;55.174;61.310;2023-02-28T18:13:17;5.70;;;4.03;;
11453;SDS011;5783;55.174;61.310;2023-02-28T18:15:47;6.03;;;4.60;;
11453;SDS011;5783;55.174;61.310;2023-02-28T18:18:16;5.00;;;4.33;;
11453;SDS011;5783;55.174;61.310;2023-02-28T18:20:45;5.10;;;4.00;;
11453;SDS011;5783;55.174;61.310;2023-02-28T18:23:15;5.20;;;3.80;;
11453;SDS011;5783;55.174;61.310;2023-02-28T18:25:46;3.87;;;3.47;;
11453;SDS011;5783;55.174;61.310;2023-02-28T18:28:17;3.50;;;3.10;;
11453;SDS011;5783;55.174;61.310;2023-02-28T18:30:46;3.30;;;3.00;;
11453;SDS011;5783;55.174;61.310;2023-02-28T18:33:15;3.20;;;2.90;;
11453;SDS011;5783;55.174;61.310;2023-02-28T18:35:45;3.43;;;2.80;;
11453;SDS011;5783;55.174;61.310;2023-02-28T18:38:17;3.03;;;2.73;;
11453;SDS011;5783;55.174;61.310;2023-02-28T18:43:37;2.67;;;2.47;;
11453;SDS011;5783;55.174;61.310;2023-02-28T18:46:26;2.97;;;2.63;;
11453;SDS011;5783;55.174;61.310;2023-02-28T18:48:55;2.80;;;2.50;;
11453;SDS011;5783;55.174;61.310;2023-02-28T18:51:24;2.50;;;2.30;;
11453;SDS011;5783;55.174;61.310;2023-02-28T18:53:54;2.80;;;2.50;;
11453;SDS011;5783;55.174;61.310;2023-02-28T18:56:24;2.60;;;2.40;;
11453;SDS011;5783;55.174;61.310;2023-02-28T18:58:54;3.30;;;2.57;;
11453;SDS011;5783;55.174;61.310;2023-02-28T19:01:24;2.80;;;2.40;;
11453;SDS011;5783;55.174;61.310;2023-02-28T19:03:57;2.47;;;2.27;;
11453;SDS011;5783;55.174;61.310;2023-02-28T19:06:28;2.40;;;2.20;;
11453;SDS011;5783;55.174;61.310;2023-02-28T19:08:59;2.50;;;2.30;;
11453;SDS011;5783;55.174;61.310;2023-02-28T19:11:30;2.43;;;2.23;;
11453;SDS011;5783;55.174;61.310;2023-02-28T19:14:00;2.40;;;2.20;;
11453;SDS011;5783;55.174;61.310;2023-02-28T19:16:29;2.40;;;2.20;;
11453;SDS011;5783;55.174;61.310;2023-02-28T19:18:58;2.50;;;2.17;;
11453;SDS011;5783;55.174;61.310;2023-02-28T19:21:28;2.30;;;2.10;;
11453;SDS011;5783;55.174;61.310;2023-02-28T19:23:57;2.30;;;2.10;;
11453;SDS011;5783;55.174;61.310;2023-02-28T19:26:26;2.23;;;2.03;;
11453;SDS011;5783;55.174;61.310;2023-02-28T19:28:55;2.80;;;2.20;;
11453;SDS011;5783;55.174;61.310;2023-02-28T19:31:24;2.20;;;2.00;;
11453;SDS011;5783;55.174;61.310;2023-02-28T19:33:53;2.00;;;1.83;;
11453;SDS011;5783;55.174;61.310;2023-02-28T19:36:24;2.30;;;2.07;;
11453;SDS011;5783;55.174;61.310;2023-02-28T19:38:53;2.27;;;2.07;;
11453;SDS011;5783;55.174;61.310;2023-02-28T19:41:22;2.63;;;2.20;;
11453;SDS011;5783;55.174;61.310;2023-02-28T19:43:52;2.43;;;2.00;;
11453;SDS011;5783;55.174;61.310;2023-02-28T19:46:21;2.23;;;2.03;;
11453;SDS011;5783;55.174;61.310;2023-02-28T19:51:39;2.43;;;2.23;;
11453;SDS011;5783;55.174;61.310;2023-02-28T19:54:09;2.73;;;2.10;;
11453;SDS011;5783;55.174;61.310;2023-02-28T19:56:38;2.10;;;1.90;;
11453;SDS011;5783;55.174;61.310;2023-02-28T19:59:07;2.40;;;2.20;;
11453;SDS011;5783;55.174;61.310;2023-02-28T20:01:37;2.30;;;2.10;;
11453;SDS011;5783;55.174;61.310;2023-02-28T20:04:06;2.57;;;2.37;;
11453;SDS011;5783;55.174;61.310;2023-02-28T20:06:37;2.20;;;2.00;;
11453;SDS011;5783;55.174;61.310;2023-02-28T20:09:07;2.30;;;2.10;;
11453;SDS011;5783;55.174;61.310;2023-02-28T20:11:36;2.20;;;2.00;;
11453;SDS011;5783;55.174;61.310;2023-02-28T20:14:07;2.30;;;2.10;;
11453;SDS011;5783;55.174;61.310;2023-02-28T20:19:27;2.73;;;2.43;;
11453;SDS011;5783;55.174;61.310;2023-02-28T20:21:57;2.60;;;2.40;;
11453;SDS011;5783;55.174;61.310;2023-02-28T20:24:27;2.50;;;2.27;;
11453;SDS011;5783;55.174;61.310;2023-02-28T20:26:57;2.43;;;2.20;;
11453;SDS011;5783;55.174;61.310;2023-02-28T20:29:26;2.50;;;2.30;;
11453;SDS011;5783;55.174;61.310;2023-02-28T20:31:55;2.53;;;2.33;;
11453;SDS011;5783;55.174;61.310;2023-02-28T20:34:25;2.50;;;2.30;;
11453;SDS011;5783;55.174;61.310;2023-02-28T20:36:54;2.47;;;2.27;;
11453;SDS011;5783;55.174;61.310;2023-02-28T20:39:24;2.60;;;2.40;;
11453;SDS011;5783;55.174;61.310;2023-02-28T20:41:53;2.80;;;2.60;;
11453;SDS011;5783;55.174;61.310;2023-02-28T20:44:22;2.87;;;2.43;;